<?xml version="1.0" encoding="UTF-8" standalone="no" ?>
<gpx xmlns="http://www.topografix.com/GPX/1/1" xmlns:xsi="http://www.w3.org/2001/XMLSchema-instance" xsi:schemaLocation="http://www.topografix.com/GPX/1/1 http://www.topografix.com/GPX/1/1/gpx.xsd" version="1.1" creator="VisuGPX - https://www.visugpx.com">
  <metadata>
    <name>Boissy Montgéroult</name>
  </metadata>
  <trk>
    <name><![CDATA[12985750-Boissy Montgéroult]]></name>
    <trkseg>
      <trkpt lat="49.06776" lon="2.03075">
        <ele>46.6</ele>
        <time>2021-05-03T10:00:32Z</time>
      </trkpt>
      <trkpt lat="49.0697" lon="2.03178">
        <ele>42.3</ele>
        <time>2021-05-03T10:05:06Z</time>
      </trkpt>
      <trkpt lat="49.07008" lon="2.0318">
        <ele>42.8</ele>
        <time>2021-05-03T10:05:57Z</time>
      </trkpt>
      <trkpt lat="49.07046" lon="2.03151">
        <ele>43.5</ele>
        <time>2021-05-03T10:06:54Z</time>
      </trkpt>
      <trkpt lat="49.07091" lon="2.03155">
        <ele>45</ele>
        <time>2021-05-03T10:07:54Z</time>
      </trkpt>
      <trkpt lat="49.07176" lon="2.0324">
        <ele>46.6</ele>
        <time>2021-05-03T10:10:09Z</time>
      </trkpt>
      <trkpt lat="49.07319" lon="2.03513">
        <ele>49.1</ele>
        <time>2021-05-03T10:15:15Z</time>
      </trkpt>
      <trkpt lat="49.07397" lon="2.03613">
        <ele>52.7</ele>
        <time>2021-05-03T10:17:31Z</time>
      </trkpt>
      <trkpt lat="49.07504" lon="2.03619">
        <ele>51.5</ele>
        <time>2021-05-03T10:19:54Z</time>
      </trkpt>
      <trkpt lat="49.0755" lon="2.03627">
        <ele>53.4</ele>
        <time>2021-05-03T10:20:55Z</time>
      </trkpt>
      <trkpt lat="49.07592" lon="2.03671">
        <ele>57.9</ele>
        <time>2021-05-03T10:22:03Z</time>
      </trkpt>
      <trkpt lat="49.07603" lon="2.03665">
        <ele>57.8</ele>
        <time>2021-05-03T10:22:19Z</time>
      </trkpt>
      <trkpt lat="49.076" lon="2.03687">
        <ele>59.8</ele>
        <time>2021-05-03T10:22:39Z</time>
      </trkpt>
      <trkpt lat="49.07588" lon="2.03709">
        <ele>61.7</ele>
        <time>2021-05-03T10:23:04Z</time>
      </trkpt>
      <trkpt lat="49.07558" lon="2.03753">
        <ele>65.3</ele>
        <time>2021-05-03T10:23:59Z</time>
      </trkpt>
      <trkpt lat="49.07528" lon="2.03888">
        <ele>71.8</ele>
        <time>2021-05-03T10:26:04Z</time>
      </trkpt>
      <trkpt lat="49.07533" lon="2.03905">
        <ele>72.4</ele>
        <time>2021-05-03T10:26:20Z</time>
      </trkpt>
      <trkpt lat="49.07551" lon="2.03931">
        <ele>73.8</ele>
        <time>2021-05-03T10:26:53Z</time>
      </trkpt>
      <trkpt lat="49.0757" lon="2.03989">
        <ele>76.4</ele>
        <time>2021-05-03T10:27:50Z</time>
      </trkpt>
      <trkpt lat="49.07588" lon="2.04002">
        <ele>77.1</ele>
        <time>2021-05-03T10:28:16Z</time>
      </trkpt>
      <trkpt lat="49.07614" lon="2.03936">
        <ele>76.1</ele>
        <time>2021-05-03T10:29:24Z</time>
      </trkpt>
      <trkpt lat="49.07718" lon="2.03838">
        <ele>73.6</ele>
        <time>2021-05-03T10:32:07Z</time>
      </trkpt>
      <trkpt lat="49.07815" lon="2.03669">
        <ele>77.3</ele>
        <time>2021-05-03T10:35:23Z</time>
      </trkpt>
      <trkpt lat="49.07838" lon="2.03632">
        <ele>77.1</ele>
        <time>2021-05-03T10:36:08Z</time>
      </trkpt>
      <trkpt lat="49.07898" lon="2.03564">
        <ele>75</ele>
        <time>2021-05-03T10:37:48Z</time>
      </trkpt>
      <trkpt lat="49.07954" lon="2.0345">
        <ele>74</ele>
        <time>2021-05-03T10:39:52Z</time>
      </trkpt>
      <trkpt lat="49.08015" lon="2.03318">
        <ele>73.7</ele>
        <time>2021-05-03T10:42:13Z</time>
      </trkpt>
      <trkpt lat="49.08051" lon="2.03213">
        <ele>75.5</ele>
        <time>2021-05-03T10:43:57Z</time>
      </trkpt>
      <trkpt lat="49.0805" lon="2.0319">
        <ele>75.6</ele>
        <time>2021-05-03T10:44:17Z</time>
      </trkpt>
      <trkpt lat="49.08073" lon="2.03123">
        <ele>75.6</ele>
        <time>2021-05-03T10:45:23Z</time>
      </trkpt>
      <trkpt lat="49.08094" lon="2.03028">
        <ele>75.6</ele>
        <time>2021-05-03T10:46:51Z</time>
      </trkpt>
      <trkpt lat="49.08117" lon="2.02948">
        <ele>76.4</ele>
        <time>2021-05-03T10:48:07Z</time>
      </trkpt>
      <trkpt lat="49.08155" lon="2.02855">
        <ele>74.4</ele>
        <time>2021-05-03T10:49:43Z</time>
      </trkpt>
      <trkpt lat="49.08187" lon="2.02798">
        <ele>72.3</ele>
        <time>2021-05-03T10:50:49Z</time>
      </trkpt>
      <trkpt lat="49.08266" lon="2.02718">
        <ele>70</ele>
        <time>2021-05-03T10:52:55Z</time>
      </trkpt>
      <trkpt lat="49.08353" lon="2.02471">
        <ele>75.9</ele>
        <time>2021-05-03T10:57:00Z</time>
      </trkpt>
      <trkpt lat="49.08342" lon="2.02383">
        <ele>77.9</ele>
        <time>2021-05-03T10:58:19Z</time>
      </trkpt>
      <trkpt lat="49.08344" lon="2.02336">
        <ele>79.1</ele>
        <time>2021-05-03T10:59:00Z</time>
      </trkpt>
      <trkpt lat="49.08356" lon="2.02286">
        <ele>79.8</ele>
        <time>2021-05-03T10:59:46Z</time>
      </trkpt>
      <trkpt lat="49.08367" lon="2.02251">
        <ele>80.4</ele>
        <time>2021-05-03T11:00:20Z</time>
      </trkpt>
      <trkpt lat="49.08381" lon="2.02231">
        <ele>80.9</ele>
        <time>2021-05-03T11:00:46Z</time>
      </trkpt>
      <trkpt lat="49.08407" lon="2.02177">
        <ele>82.5</ele>
        <time>2021-05-03T11:01:44Z</time>
      </trkpt>
      <trkpt lat="49.08457" lon="2.02117">
        <ele>84.4</ele>
        <time>2021-05-03T11:03:09Z</time>
      </trkpt>
      <trkpt lat="49.0853" lon="2.02092">
        <ele>86.5</ele>
        <time>2021-05-03T11:04:49Z</time>
      </trkpt>
      <trkpt lat="49.0856" lon="2.02094">
        <ele>87.3</ele>
        <time>2021-05-03T11:05:29Z</time>
      </trkpt>
      <trkpt lat="49.08605" lon="2.02107">
        <ele>87.9</ele>
        <time>2021-05-03T11:06:30Z</time>
      </trkpt>
      <trkpt lat="49.08673" lon="2.02162">
        <ele>89</ele>
        <time>2021-05-03T11:08:13Z</time>
      </trkpt>
      <trkpt lat="49.08719" lon="2.02238">
        <ele>88.8</ele>
        <time>2021-05-03T11:09:43Z</time>
      </trkpt>
      <trkpt lat="49.08731" lon="2.02241">
        <ele>88.9</ele>
        <time>2021-05-03T11:10:00Z</time>
      </trkpt>
      <trkpt lat="49.08743" lon="2.02175">
        <ele>89.8</ele>
        <time>2021-05-03T11:10:59Z</time>
      </trkpt>
      <trkpt lat="49.08775" lon="2.02105">
        <ele>90.4</ele>
        <time>2021-05-03T11:12:14Z</time>
      </trkpt>
      <trkpt lat="49.08817" lon="2.0204">
        <ele>90.7</ele>
        <time>2021-05-03T11:13:34Z</time>
      </trkpt>
      <trkpt lat="49.0888" lon="2.01986">
        <ele>90.9</ele>
        <time>2021-05-03T11:15:10Z</time>
      </trkpt>
      <trkpt lat="49.08942" lon="2.01963">
        <ele>90.6</ele>
        <time>2021-05-03T11:16:35Z</time>
      </trkpt>
      <trkpt lat="49.09046" lon="2.01955">
        <ele>90.5</ele>
        <time>2021-05-03T11:18:54Z</time>
      </trkpt>
      <trkpt lat="49.09085" lon="2.01957">
        <ele>90.5</ele>
        <time>2021-05-03T11:19:46Z</time>
      </trkpt>
      <trkpt lat="49.09266" lon="2.01992">
        <ele>92.1</ele>
        <time>2021-05-03T11:23:50Z</time>
      </trkpt>
      <trkpt lat="49.09509" lon="2.02089">
        <ele>94.8</ele>
        <time>2021-05-03T11:29:25Z</time>
      </trkpt>
      <trkpt lat="49.09659" lon="2.0219">
        <ele>95.4</ele>
        <time>2021-05-03T11:33:04Z</time>
      </trkpt>
      <trkpt lat="49.09807" lon="2.02247">
        <ele>95</ele>
        <time>2021-05-03T11:36:28Z</time>
      </trkpt>
      <trkpt lat="49.09819" lon="2.02028">
        <ele>89.1</ele>
        <time>2021-05-03T11:39:40Z</time>
      </trkpt>
      <trkpt lat="49.09786" lon="2.01946">
        <ele>88.7</ele>
        <time>2021-05-03T11:41:04Z</time>
      </trkpt>
      <trkpt lat="49.0973" lon="2.01867">
        <ele>88.8</ele>
        <time>2021-05-03T11:42:45Z</time>
      </trkpt>
      <trkpt lat="49.09648" lon="2.01775">
        <ele>87.9</ele>
        <time>2021-05-03T11:45:01Z</time>
      </trkpt>
      <trkpt lat="49.09561" lon="2.01666">
        <ele>86.3</ele>
        <time>2021-05-03T11:47:31Z</time>
      </trkpt>
      <trkpt lat="49.09497" lon="2.01621">
        <ele>85.7</ele>
        <time>2021-05-03T11:49:05Z</time>
      </trkpt>
      <trkpt lat="49.09292" lon="2.01577">
        <ele>81.3</ele>
        <time>2021-05-03T11:53:42Z</time>
      </trkpt>
      <trkpt lat="49.09105" lon="2.01528">
        <ele>78.3</ele>
        <time>2021-05-03T11:57:55Z</time>
      </trkpt>
      <trkpt lat="49.09007" lon="2.01447">
        <ele>77.1</ele>
        <time>2021-05-03T12:00:24Z</time>
      </trkpt>
      <trkpt lat="49.08879" lon="2.01277">
        <ele>77.7</ele>
        <time>2021-05-03T12:04:10Z</time>
      </trkpt>
      <trkpt lat="49.08737" lon="2.01135">
        <ele>73.6</ele>
        <time>2021-05-03T12:07:56Z</time>
      </trkpt>
      <trkpt lat="49.08672" lon="2.01071">
        <ele>71.2</ele>
        <time>2021-05-03T12:09:40Z</time>
      </trkpt>
      <trkpt lat="49.08666" lon="2.01006">
        <ele>71</ele>
        <time>2021-05-03T12:10:37Z</time>
      </trkpt>
      <trkpt lat="49.08633" lon="2.00948">
        <ele>73.2</ele>
        <time>2021-05-03T12:11:44Z</time>
      </trkpt>
      <trkpt lat="49.08548" lon="2.00809">
        <ele>76.7</ele>
        <time>2021-05-03T12:14:30Z</time>
      </trkpt>
      <trkpt lat="49.08413" lon="2.00693">
        <ele>75.2</ele>
        <time>2021-05-03T12:17:57Z</time>
      </trkpt>
      <trkpt lat="49.08381" lon="2.00662">
        <ele>72.9</ele>
        <time>2021-05-03T12:18:48Z</time>
      </trkpt>
      <trkpt lat="49.08382" lon="2.00649">
        <ele>73.4</ele>
        <time>2021-05-03T12:18:59Z</time>
      </trkpt>
      <trkpt lat="49.08324" lon="2.00626">
        <ele>67.8</ele>
        <time>2021-05-03T12:20:19Z</time>
      </trkpt>
      <trkpt lat="49.08314" lon="2.00614">
        <ele>67.4</ele>
        <time>2021-05-03T12:20:36Z</time>
      </trkpt>
      <trkpt lat="49.08302" lon="2.00626">
        <ele>65.2</ele>
        <time>2021-05-03T12:20:55Z</time>
      </trkpt>
      <trkpt lat="49.08302" lon="2.00656">
        <ele>62.9</ele>
        <time>2021-05-03T12:21:21Z</time>
      </trkpt>
      <trkpt lat="49.08316" lon="2.00709">
        <ele>59.9</ele>
        <time>2021-05-03T12:22:11Z</time>
      </trkpt>
      <trkpt lat="49.08332" lon="2.00735">
        <ele>59.4</ele>
        <time>2021-05-03T12:22:43Z</time>
      </trkpt>
      <trkpt lat="49.08309" lon="2.00835">
        <ele>53.5</ele>
        <time>2021-05-03T12:24:15Z</time>
      </trkpt>
      <trkpt lat="49.0829" lon="2.00858">
        <ele>57.1</ele>
        <time>2021-05-03T12:24:48Z</time>
      </trkpt>
      <trkpt lat="49.08136" lon="2.00772">
        <ele>49.4</ele>
        <time>2021-05-03T12:28:26Z</time>
      </trkpt>
      <trkpt lat="49.08107" lon="2.00756">
        <ele>47.6</ele>
        <time>2021-05-03T12:29:07Z</time>
      </trkpt>
      <trkpt lat="49.08126" lon="2.0069">
        <ele>45.9</ele>
        <time>2021-05-03T12:30:10Z</time>
      </trkpt>
      <trkpt lat="49.08122" lon="2.00636">
        <ele>46</ele>
        <time>2021-05-03T12:30:58Z</time>
      </trkpt>
      <trkpt lat="49.08106" lon="2.00536">
        <ele>45.9</ele>
        <time>2021-05-03T12:32:28Z</time>
      </trkpt>
      <trkpt lat="49.08093" lon="2.00442">
        <ele>45.7</ele>
        <time>2021-05-03T12:33:52Z</time>
      </trkpt>
      <trkpt lat="49.08043" lon="2.00398">
        <ele>43.2</ele>
        <time>2021-05-03T12:35:09Z</time>
      </trkpt>
      <trkpt lat="49.08005" lon="2.0036">
        <ele>41.5</ele>
        <time>2021-05-03T12:36:10Z</time>
      </trkpt>
      <trkpt lat="49.07986" lon="2.00416">
        <ele>42</ele>
        <time>2021-05-03T12:37:05Z</time>
      </trkpt>
      <trkpt lat="49.07986" lon="2.00519">
        <ele>43.3</ele>
        <time>2021-05-03T12:38:35Z</time>
      </trkpt>
      <trkpt lat="49.07967" lon="2.00622">
        <ele>43.5</ele>
        <time>2021-05-03T12:40:08Z</time>
      </trkpt>
      <trkpt lat="49.07929" lon="2.00622">
        <ele>43.1</ele>
        <time>2021-05-03T12:40:59Z</time>
      </trkpt>
      <trkpt lat="49.07907" lon="2.00685">
        <ele>43.1</ele>
        <time>2021-05-03T12:42:01Z</time>
      </trkpt>
      <trkpt lat="49.0789" lon="2.00812">
        <ele>44.2</ele>
        <time>2021-05-03T12:43:55Z</time>
      </trkpt>
      <trkpt lat="49.07861" lon="2.00838">
        <ele>44</ele>
        <time>2021-05-03T12:44:40Z</time>
      </trkpt>
      <trkpt lat="49.07842" lon="2.00892">
        <ele>43.5</ele>
        <time>2021-05-03T12:45:33Z</time>
      </trkpt>
      <trkpt lat="49.07819" lon="2.00932">
        <ele>43</ele>
        <time>2021-05-03T12:46:20Z</time>
      </trkpt>
      <trkpt lat="49.07809" lon="2.00965">
        <ele>43.5</ele>
        <time>2021-05-03T12:46:51Z</time>
      </trkpt>
      <trkpt lat="49.07803" lon="2.00989">
        <ele>43.8</ele>
        <time>2021-05-03T12:47:14Z</time>
      </trkpt>
      <trkpt lat="49.07798" lon="2.0103">
        <ele>44.6</ele>
        <time>2021-05-03T12:47:50Z</time>
      </trkpt>
      <trkpt lat="49.07754" lon="2.01194">
        <ele>44.3</ele>
        <time>2021-05-03T12:50:25Z</time>
      </trkpt>
      <trkpt lat="49.07749" lon="2.01246">
        <ele>45.1</ele>
        <time>2021-05-03T12:51:11Z</time>
      </trkpt>
      <trkpt lat="49.07771" lon="2.01384">
        <ele>47.9</ele>
        <time>2021-05-03T12:53:15Z</time>
      </trkpt>
      <trkpt lat="49.07778" lon="2.01478">
        <ele>46.9</ele>
        <time>2021-05-03T12:54:38Z</time>
      </trkpt>
      <trkpt lat="49.07755" lon="2.01558">
        <ele>46.3</ele>
        <time>2021-05-03T12:55:54Z</time>
      </trkpt>
      <trkpt lat="49.07724" lon="2.0165">
        <ele>47.6</ele>
        <time>2021-05-03T12:57:25Z</time>
      </trkpt>
      <trkpt lat="49.07701" lon="2.01681">
        <ele>48.4</ele>
        <time>2021-05-03T12:58:06Z</time>
      </trkpt>
      <trkpt lat="49.07688" lon="2.01705">
        <ele>48</ele>
        <time>2021-05-03T12:58:33Z</time>
      </trkpt>
      <trkpt lat="49.07654" lon="2.01797">
        <ele>48.3</ele>
        <time>2021-05-03T13:00:05Z</time>
      </trkpt>
      <trkpt lat="49.07622" lon="2.01853">
        <ele>51.2</ele>
        <time>2021-05-03T13:01:10Z</time>
      </trkpt>
      <trkpt lat="49.0758" lon="2.019">
        <ele>53.2</ele>
        <time>2021-05-03T13:02:20Z</time>
      </trkpt>
      <trkpt lat="49.0756" lon="2.01961">
        <ele>53.6</ele>
        <time>2021-05-03T13:03:19Z</time>
      </trkpt>
      <trkpt lat="49.07529" lon="2.02027">
        <ele>54.3</ele>
        <time>2021-05-03T13:04:30Z</time>
      </trkpt>
      <trkpt lat="49.07509" lon="2.0207">
        <ele>54</ele>
        <time>2021-05-03T13:05:17Z</time>
      </trkpt>
      <trkpt lat="49.07498" lon="2.02133">
        <ele>51.3</ele>
        <time>2021-05-03T13:06:14Z</time>
      </trkpt>
      <trkpt lat="49.07468" lon="2.02212">
        <ele>51</ele>
        <time>2021-05-03T13:07:33Z</time>
      </trkpt>
      <trkpt lat="49.07437" lon="2.02307">
        <ele>50.4</ele>
        <time>2021-05-03T13:09:06Z</time>
      </trkpt>
      <trkpt lat="49.07412" lon="2.02409">
        <ele>53.8</ele>
        <time>2021-05-03T13:10:41Z</time>
      </trkpt>
      <trkpt lat="49.07401" lon="2.02508">
        <ele>53.5</ele>
        <time>2021-05-03T13:12:09Z</time>
      </trkpt>
      <trkpt lat="49.07399" lon="2.0262">
        <ele>51.3</ele>
        <time>2021-05-03T13:13:47Z</time>
      </trkpt>
      <trkpt lat="49.0741" lon="2.02734">
        <ele>45.1</ele>
        <time>2021-05-03T13:15:28Z</time>
      </trkpt>
      <trkpt lat="49.07418" lon="2.02809">
        <ele>43.9</ele>
        <time>2021-05-03T13:16:34Z</time>
      </trkpt>
      <trkpt lat="49.07417" lon="2.02936">
        <ele>41.8</ele>
        <time>2021-05-03T13:18:25Z</time>
      </trkpt>
      <trkpt lat="49.07471" lon="2.029">
        <ele>41.4</ele>
        <time>2021-05-03T13:19:44Z</time>
      </trkpt>
      <trkpt lat="49.07531" lon="2.02922">
        <ele>41.7</ele>
        <time>2021-05-03T13:21:06Z</time>
      </trkpt>
      <trkpt lat="49.07528" lon="2.02943">
        <ele>41.6</ele>
        <time>2021-05-03T13:21:25Z</time>
      </trkpt>
      <trkpt lat="49.07503" lon="2.02941">
        <ele>41.1</ele>
        <time>2021-05-03T13:21:58Z</time>
      </trkpt>
      <trkpt lat="49.07479" lon="2.0305">
        <ele>39.6</ele>
        <time>2021-05-03T13:23:39Z</time>
      </trkpt>
      <trkpt lat="49.07449" lon="2.0319">
        <ele>39.6</ele>
        <time>2021-05-03T13:25:48Z</time>
      </trkpt>
      <trkpt lat="49.07429" lon="2.0322">
        <ele>40.3</ele>
        <time>2021-05-03T13:26:25Z</time>
      </trkpt>
      <trkpt lat="49.07357" lon="2.03316">
        <ele>43</ele>
        <time>2021-05-03T13:28:33Z</time>
      </trkpt>
      <trkpt lat="49.07325" lon="2.03275">
        <ele>42.4</ele>
        <time>2021-05-03T13:29:28Z</time>
      </trkpt>
      <trkpt lat="49.07301" lon="2.03269">
        <ele>42.4</ele>
        <time>2021-05-03T13:30:01Z</time>
      </trkpt>
      <trkpt lat="49.07232" lon="2.03337">
        <ele>47.6</ele>
        <time>2021-05-03T13:31:51Z</time>
      </trkpt>
      <trkpt lat="49.07181" lon="2.03238">
        <ele>46.2</ele>
        <time>2021-05-03T13:33:41Z</time>
      </trkpt>
      <trkpt lat="49.07223" lon="2.03171">
        <ele>40.2</ele>
        <time>2021-05-03T13:35:02Z</time>
      </trkpt>
      <trkpt lat="49.07242" lon="2.03196">
        <ele>40.4</ele>
        <time>2021-05-03T13:35:35Z</time>
      </trkpt>
      <trkpt lat="49.07228" lon="2.03243">
        <ele>43.3</ele>
        <time>2021-05-03T13:36:20Z</time>
      </trkpt>
      <trkpt lat="49.07233" lon="2.03265">
        <ele>43.9</ele>
        <time>2021-05-03T13:36:41Z</time>
      </trkpt>
      <trkpt lat="49.07267" lon="2.03251">
        <ele>42</ele>
        <time>2021-05-03T13:37:28Z</time>
      </trkpt>
      <trkpt lat="49.07274" lon="2.03219">
        <ele>40.9</ele>
        <time>2021-05-03T13:37:57Z</time>
      </trkpt>
      <trkpt lat="49.07296" lon="2.03218">
        <ele>40.8</ele>
        <time>2021-05-03T13:38:27Z</time>
      </trkpt>
      <trkpt lat="49.07311" lon="2.03201">
        <ele>40.2</ele>
        <time>2021-05-03T13:38:51Z</time>
      </trkpt>
      <trkpt lat="49.07326" lon="2.03182">
        <ele>39.6</ele>
        <time>2021-05-03T13:39:17Z</time>
      </trkpt>
      <trkpt lat="49.07346" lon="2.03166">
        <ele>39</ele>
        <time>2021-05-03T13:39:48Z</time>
      </trkpt>
      <trkpt lat="49.07333" lon="2.03142">
        <ele>39</ele>
        <time>2021-05-03T13:40:15Z</time>
      </trkpt>
      <trkpt lat="49.073" lon="2.0314">
        <ele>39.1</ele>
        <time>2021-05-03T13:40:59Z</time>
      </trkpt>
      <trkpt lat="49.07287" lon="2.03176">
        <ele>39.3</ele>
        <time>2021-05-03T13:41:35Z</time>
      </trkpt>
      <trkpt lat="49.0726" lon="2.0318">
        <ele>39.5</ele>
        <time>2021-05-03T13:42:11Z</time>
      </trkpt>
      <trkpt lat="49.07247" lon="2.03189">
        <ele>39.9</ele>
        <time>2021-05-03T13:42:30Z</time>
      </trkpt>
      <trkpt lat="49.072" lon="2.03161">
        <ele>40.7</ele>
        <time>2021-05-03T13:43:37Z</time>
      </trkpt>
      <trkpt lat="49.07163" lon="2.03139">
        <ele>41.5</ele>
        <time>2021-05-03T13:44:30Z</time>
      </trkpt>
      <trkpt lat="49.07106" lon="2.03117">
        <ele>42.4</ele>
        <time>2021-05-03T13:45:49Z</time>
      </trkpt>
      <trkpt lat="49.07036" lon="2.03104">
        <ele>41.2</ele>
        <time>2021-05-03T13:47:23Z</time>
      </trkpt>
      <trkpt lat="49.07009" lon="2.03148">
        <ele>41.9</ele>
        <time>2021-05-03T13:48:16Z</time>
      </trkpt>
      <trkpt lat="49.06999" lon="2.03174">
        <ele>42.2</ele>
        <time>2021-05-03T13:48:42Z</time>
      </trkpt>
      <trkpt lat="49.06941" lon="2.03169">
        <ele>42.1</ele>
        <time>2021-05-03T13:50:00Z</time>
      </trkpt>
      <trkpt lat="49.06778" lon="2.03083">
        <ele>45.7</ele>
        <time>2021-05-03T13:53:50Z</time>
      </trkpt>
    </trkseg>
  </trk>
</gpx>